sensor_id;sensor_type;location;lat;lon;timestamp;temperature;humidity
51305;HTU21D;37392;50.964;6.952;2023-06-26T00:01:23;22.76;69.74
51305;HTU21D;37392;50.964;6.952;2023-06-26T00:03:48;22.81;69.28
51305;HTU21D;37392;50.964;6.952;2023-06-26T00:06:14;22.73;69.40
51305;HTU21D;37392;50.964;6.952;2023-06-26T00:08:40;22.68;69.20
51305;HTU21D;37392;50.964;6.952;2023-06-26T00:11:05;22.66;69.20
51305;HTU21D;37392;50.964;6.952;2023-06-26T00:13:31;22.66;69.20
51305;HTU21D;37392;50.964;6.952;2023-06-26T00:15:57;22.62;69.62
51305;HTU21D;37392;50.964;6.952;2023-06-26T00:18:22;22.57;70.03
51305;HTU21D;37392;50.964;6.952;2023-06-26T00:20:49;22.58;70.26
51305;HTU21D;37392;50.964;6.952;2023-06-26T00:23:16;22.57;70.46
51305;HTU21D;37392;50.964;6.952;2023-06-26T00:25:42;22.51;70.72
51305;HTU21D;37392;50.964;6.952;2023-06-26T00:28:09;22.47;70.91
51305;HTU21D;37392;50.964;6.952;2023-06-26T00:30:35;22.37;71.13
51305;HTU21D;37392;50.964;6.952;2023-06-26T00:33:01;22.33;71.65
51305;HTU21D;37392;50.964;6.952;2023-06-26T00:35:26;22.33;71.79
51305;HTU21D;37392;50.964;6.952;2023-06-26T00:37:52;22.35;71.74
51305;HTU21D;37392;50.964;6.952;2023-06-26T00:40:18;22.36;71.83
51305;HTU21D;37392;50.964;6.952;2023-06-26T00:42:43;22.33;71.46
51305;HTU21D;37392;50.964;6.952;2023-06-26T00:45:09;22.33;71.37
51305;HTU21D;37392;50.964;6.952;2023-06-26T00:47:35;22.39;71.00
51305;HTU21D;37392;50.964;6.952;2023-06-26T00:50:00;22.38;70.45
51305;HTU21D;37392;50.964;6.952;2023-06-26T00:52:26;22.39;70.50
51305;HTU21D;37392;50.964;6.952;2023-06-26T00:54:52;22.28;70.68
51305;HTU21D;37392;50.964;6.952;2023-06-26T00:57:18;22.22;70.89
51305;HTU21D;37392;50.964;6.952;2023-06-26T00:59:44;22.18;71.08
51305;HTU21D;37392;50.964;6.952;2023-06-26T01:02:09;22.14;70.95
51305;HTU21D;37392;50.964;6.952;2023-06-26T01:04:35;22.11;71.10
51305;HTU21D;37392;50.964;6.952;2023-06-26T01:07:02;22.08;71.38
51305;HTU21D;37392;50.964;6.952;2023-06-26T01:09:28;22.03;71.64
51305;HTU21D;37392;50.964;6.952;2023-06-26T01:11:54;22.03;71.69
51305;HTU21D;37392;50.964;6.952;2023-06-26T01:14:20;21.99;71.69
51305;HTU21D;37392;50.964;6.952;2023-06-26T01:16:46;21.94;71.91
51305;HTU21D;37392;50.964;6.952;2023-06-26T01:19:20;21.96;72.16
51305;HTU21D;37392;50.964;6.952;2023-06-26T01:21:56;21.99;72.16
51305;HTU21D;37392;50.964;6.952;2023-06-26T01:24:33;22.05;72.13
51305;HTU21D;37392;50.964;6.952;2023-06-26T01:27:03;22.02;72.18
51305;HTU21D;37392;50.964;6.952;2023-06-26T01:29:31;22.05;72.04
51305;HTU21D;37392;50.964;6.952;2023-06-26T01:31:58;21.93;72.25
51305;HTU21D;37392;50.964;6.952;2023-06-26T01:34:24;21.89;72.57
51305;HTU21D;37392;50.964;6.952;2023-06-26T01:36:50;21.85;72.79
51305;HTU21D;37392;50.964;6.952;2023-06-26T01:39:17;21.89;72.72
51305;HTU21D;37392;50.964;6.952;2023-06-26T01:41:43;21.90;72.52
51305;HTU21D;37392;50.964;6.952;2023-06-26T01:44:44;21.85;72.59
51305;HTU21D;37392;50.964;6.952;2023-06-26T01:47:05;21.84;72.77
51305;HTU21D;37392;50.964;6.952;2023-06-26T01:55:05;21.79;72.93
51305;HTU21D;37392;50.964;6.952;2023-06-26T01:57:38;21.76;73.06
51305;HTU21D;37392;50.964;6.952;2023-06-26T02:00:05;21.72;73.37
51305;HTU21D;37392;50.964;6.952;2023-06-26T02:02:35;21.67;73.54
51305;HTU21D;37392;50.964;6.952;2023-06-26T02:05:01;21.65;73.48
51305;HTU21D;37392;50.964;6.952;2023-06-26T02:07:27;21.54;73.76
51305;HTU21D;37392;50.964;6.952;2023-06-26T02:09:53;21.36;74.21
51305;HTU21D;37392;50.964;6.952;2023-06-26T02:12:18;21.27;74.71
51305;HTU21D;37392;50.964;6.952;2023-06-26T02:14:44;21.31;75.15
51305;HTU21D;37392;50.964;6.952;2023-06-26T02:17:10;21.28;75.19
51305;HTU21D;37392;50.964;6.952;2023-06-26T02:19:35;21.33;75.50
51305;HTU21D;37392;50.964;6.952;2023-06-26T02:22:01;21.44;75.33
51305;HTU21D;37392;50.964;6.952;2023-06-26T02:24:26;21.44;75.43
51305;HTU21D;37392;50.964;6.952;2023-06-26T02:26:55;21.38;75.70
51305;HTU21D;37392;50.964;6.952;2023-06-26T02:29:22;21.27;75.89
51305;HTU21D;37392;50.964;6.952;2023-06-26T02:31:48;21.08;76.30
51305;HTU21D;37392;50.964;6.952;2023-06-26T02:34:14;20.96;76.87
51305;HTU21D;37392;50.964;6.952;2023-06-26T02:36:39;20.88;77.25
51305;HTU21D;37392;50.964;6.952;2023-06-26T02:39:05;20.83;77.48
51305;HTU21D;37392;50.964;6.952;2023-06-26T02:41:31;20.81;77.70
51305;HTU21D;37392;50.964;6.952;2023-06-26T02:43:56;20.72;77.60
51305;HTU21D;37392;50.964;6.952;2023-06-26T02:46:22;20.73;78.10
51305;HTU21D;37392;50.964;6.952;2023-06-26T02:48:47;20.76;78.06
51305;HTU21D;37392;50.964;6.952;2023-06-26T02:51:13;20.81;77.85
51305;HTU21D;37392;50.964;6.952;2023-06-26T02:53:38;20.81;77.85
51305;HTU21D;37392;50.964;6.952;2023-06-26T02:56:04;20.66;77.63
51305;HTU21D;37392;50.964;6.952;2023-06-26T02:58:30;20.63;77.91
51305;HTU21D;37392;50.964;6.952;2023-06-26T03:00:55;20.64;78.05
51305;HTU21D;37392;50.964;6.952;2023-06-26T03:03:21;20.65;78.08
51305;HTU21D;37392;50.964;6.952;2023-06-26T03:05:47;20.70;77.82
51305;HTU21D;37392;50.964;6.952;2023-06-26T03:08:12;20.70;77.56
51305;HTU21D;37392;50.964;6.952;2023-06-26T03:10:38;20.70;76.76
51305;HTU21D;37392;50.964;6.952;2023-06-26T03:13:03;20.69;76.39
51305;HTU21D;37392;50.964;6.952;2023-06-26T03:15:29;20.71;75.98
51305;HTU21D;37392;50.964;6.952;2023-06-26T03:17:54;20.73;75.99
51305;HTU21D;37392;50.964;6.952;2023-06-26T03:20:20;20.74;75.85
51305;HTU21D;37392;50.964;6.952;2023-06-26T03:22:45;20.85;75.87
51305;HTU21D;37392;50.964;6.952;2023-06-26T03:25:11;20.89;75.47
51305;HTU21D;37392;50.964;6.952;2023-06-26T03:27:37;20.96;74.89
51305;HTU21D;37392;50.964;6.952;2023-06-26T03:30:02;21.02;74.78
51305;HTU21D;37392;50.964;6.952;2023-06-26T03:32:28;21.14;74.81
51305;HTU21D;37392;50.964;6.952;2023-06-26T03:34:53;21.28;74.27
51305;HTU21D;37392;50.964;6.952;2023-06-26T03:37:19;21.32;73.90
51305;HTU21D;37392;50.964;6.952;2023-06-26T03:39:44;21.37;74.23
51305;HTU21D;37392;50.964;6.952;2023-06-26T03:42:10;21.44;74.22
51305;HTU21D;37392;50.964;6.952;2023-06-26T03:44:35;21.52;74.40
51305;HTU21D;37392;50.964;6.952;2023-06-26T03:47:01;21.60;74.12
51305;HTU21D;37392;50.964;6.952;2023-06-26T03:49:27;21.72;74.16
51305;HTU21D;37392;50.964;6.952;2023-06-26T03:51:52;21.80;74.13
51305;HTU21D;37392;50.964;6.952;2023-06-26T03:54:18;21.90;74.17
51305;HTU21D;37392;50.964;6.952;2023-06-26T03:56:43;22.02;74.12
51305;HTU21D;37392;50.964;6.952;2023-06-26T03:59:09;22.12;73.90
51305;HTU21D;37392;50.964;6.952;2023-06-26T04:01:36;22.19;73.79
51305;HTU21D;37392;50.964;6.952;2023-06-26T04:04:02;22.29;73.39
51305;HTU21D;37392;50.964;6.952;2023-06-26T04:06:28;22.34;73.61
51305;HTU21D;37392;50.964;6.952;2023-06-26T04:08:56;22.43;73.49
51305;HTU21D;37392;50.964;6.952;2023-06-26T04:11:22;22.55;73.41
51305;HTU21D;37392;50.964;6.952;2023-06-26T04:13:49;22.70;73.08
51305;HTU21D;37392;50.964;6.952;2023-06-26T04:16:14;22.98;72.38
51305;HTU21D;37392;50.964;6.952;2023-06-26T04:18:41;23.26;71.76
51305;HTU21D;37392;50.964;6.952;2023-06-26T04:21:11;23.60;71.00
51305;HTU21D;37392;50.964;6.952;2023-06-26T04:23:38;24.05;69.44
51305;HTU21D;37392;50.964;6.952;2023-06-26T04:26:05;24.39;68.62
51305;HTU21D;37392;50.964;6.952;2023-06-26T04:28:35;25.06;67.33
51305;HTU21D;37392;50.964;6.952;2023-06-26T04:31:01;25.90;64.85
51305;HTU21D;37392;50.964;6.952;2023-06-26T04:33:29;26.68;62.73
51305;HTU21D;37392;50.964;6.952;2023-06-26T04:35:54;27.24;60.99
51305;HTU21D;37392;50.964;6.952;2023-06-26T04:38:21;27.71;59.54
51305;HTU21D;37392;50.964;6.952;2023-06-26T04:40:47;28.13;58.30
51305;HTU21D;37392;50.964;6.952;2023-06-26T04:43:13;28.38;57.92
51305;HTU21D;37392;50.964;6.952;2023-06-26T04:45:39;29.01;56.60
51305;HTU21D;37392;50.964;6.952;2023-06-26T04:48:05;29.42;54.98
51305;HTU21D;37392;50.964;6.952;2023-06-26T04:50:31;29.64;54.44
51305;HTU21D;37392;50.964;6.952;2023-06-26T04:52:57;29.95;53.58
51305;HTU21D;37392;50.964;6.952;2023-06-26T04:55:25;30.27;52.89
51305;HTU21D;37392;50.964;6.952;2023-06-26T04:57:51;29.86;52.89
51305;HTU21D;37392;50.964;6.952;2023-06-26T05:00:17;29.53;53.60
51305;HTU21D;37392;50.964;6.952;2023-06-26T05:02:43;29.13;54.92
51305;HTU21D;37392;50.964;6.952;2023-06-26T05:05:09;29.14;55.05
51305;HTU21D;37392;50.964;6.952;2023-06-26T05:07:35;29.52;54.20
51305;HTU21D;37392;50.964;6.952;2023-06-26T05:10:01;30.16;53.00
51305;HTU21D;37392;50.964;6.952;2023-06-26T05:12:27;30.78;51.44
51305;HTU21D;37392;50.964;6.952;2023-06-26T05:14:53;30.99;50.32
51305;HTU21D;37392;50.964;6.952;2023-06-26T05:17:18;30.44;50.81
51305;HTU21D;37392;50.964;6.952;2023-06-26T05:19:44;30.05;51.69
51305;HTU21D;37392;50.964;6.952;2023-06-26T05:22:10;29.65;52.50
51305;HTU21D;37392;50.964;6.952;2023-06-26T05:24:38;29.31;53.47
51305;HTU21D;37392;50.964;6.952;2023-06-26T05:27:05;29.28;53.76
51305;HTU21D;37392;50.964;6.952;2023-06-26T05:29:31;28.85;54.52
51305;HTU21D;37392;50.964;6.952;2023-06-26T05:31:58;28.71;54.74
51305;HTU21D;37392;50.964;6.952;2023-06-26T05:34:24;28.65;54.96
51305;HTU21D;37392;50.964;6.952;2023-06-26T05:36:51;28.75;54.82
51305;HTU21D;37392;50.964;6.952;2023-06-26T05:39:18;29.01;54.90
51305;HTU21D;37392;50.964;6.952;2023-06-26T05:41:44;29.92;53.01
51305;HTU21D;37392;50.964;6.952;2023-06-26T05:44:10;30.95;50.53
51305;HTU21D;37392;50.964;6.952;2023-06-26T05:46:36;31.81;48.47
51305;HTU21D;37392;50.964;6.952;2023-06-26T05:49:02;31.93;47.47
51305;HTU21D;37392;50.964;6.952;2023-06-26T05:51:28;31.51;48.17
51305;HTU21D;37392;50.964;6.952;2023-06-26T05:53:54;31.07;49.16
51305;HTU21D;37392;50.964;6.952;2023-06-26T05:56:20;31.44;48.77
51305;HTU21D;37392;50.964;6.952;2023-06-26T05:58:46;31.44;48.24
51305;HTU21D;37392;50.964;6.952;2023-06-26T06:01:12;31.12;49.02
51305;HTU21D;37392;50.964;6.952;2023-06-26T06:03:39;30.98;49.90
51305;HTU21D;37392;50.964;6.952;2023-06-26T06:06:05;31.28;49.14
51305;HTU21D;37392;50.964;6.952;2023-06-26T06:08:30;31.42;48.70
51305;HTU21D;37392;50.964;6.952;2023-06-26T06:10:56;32.26;47.41
51305;HTU21D;37392;50.964;6.952;2023-06-26T06:13:21;33.18;45.70
51305;HTU21D;37392;50.964;6.952;2023-06-26T06:15:47;33.49;44.48
51305;HTU21D;37392;50.964;6.952;2023-06-26T06:18:12;32.74;45.72
51305;HTU21D;37392;50.964;6.952;2023-06-26T06:20:38;31.66;47.67
51305;HTU21D;37392;50.964;6.952;2023-06-26T06:23:03;30.95;49.54
51305;HTU21D;37392;50.964;6.952;2023-06-26T06:25:29;31.31;49.34
51305;HTU21D;37392;50.964;6.952;2023-06-26T06:27:56;31.67;48.50
51305;HTU21D;37392;50.964;6.952;2023-06-26T06:30:21;31.12;49.21
51305;HTU21D;37392;50.964;6.952;2023-06-26T06:32:47;30.70;50.24
51305;HTU21D;37392;50.964;6.952;2023-06-26T06:35:17;30.39;51.06
51305;HTU21D;37392;50.964;6.952;2023-06-26T06:37:43;30.02;51.88
51305;HTU21D;37392;50.964;6.952;2023-06-26T06:40:11;29.76;52.56
51305;HTU21D;37392;50.964;6.952;2023-06-26T06:42:37;29.41;53.36
51305;HTU21D;37392;50.964;6.952;2023-06-26T06:45:04;28.90;54.59
51305;HTU21D;37392;50.964;6.952;2023-06-26T06:47:31;28.53;55.63
51305;HTU21D;37392;50.964;6.952;2023-06-26T06:49:57;28.26;56.42
51305;HTU21D;37392;50.964;6.952;2023-06-26T06:52:22;28.25;56.50
51305;HTU21D;37392;50.964;6.952;2023-06-26T06:54:56;28.37;56.57
51305;HTU21D;37392;50.964;6.952;2023-06-26T06:57:24;28.47;56.26
51305;HTU21D;37392;50.964;6.952;2023-06-26T06:59:50;28.47;55.89
51305;HTU21D;37392;50.964;6.952;2023-06-26T07:02:19;28.80;55.90
51305;HTU21D;37392;50.964;6.952;2023-06-26T07:04:45;29.94;53.53
51305;HTU21D;37392;50.964;6.952;2023-06-26T07:07:12;31.24;50.89
51305;HTU21D;37392;50.964;6.952;2023-06-26T07:09:39;32.60;47.76
51305;HTU21D;37392;50.964;6.952;2023-06-26T07:12:05;33.38;46.21
51305;HTU21D;37392;50.964;6.952;2023-06-26T07:14:30;34.32;44.42
51305;HTU21D;37392;50.964;6.952;2023-06-26T07:16:56;35.19;42.90
51305;HTU21D;37392;50.964;6.952;2023-06-26T07:19:22;35.54;42.18
51305;HTU21D;37392;50.964;6.952;2023-06-26T07:21:47;36.00;41.49
51305;HTU21D;37392;50.964;6.952;2023-06-26T07:24:13;36.45;40.52
51305;HTU21D;37392;50.964;6.952;2023-06-26T07:26:39;37.00;40.00
51305;HTU21D;37392;50.964;6.952;2023-06-26T07:29:05;36.87;39.54
51305;HTU21D;37392;50.964;6.952;2023-06-26T07:31:30;35.95;40.91
51305;HTU21D;37392;50.964;6.952;2023-06-26T07:33:56;35.15;42.00
51305;HTU21D;37392;50.964;6.952;2023-06-26T07:36:21;34.47;43.62
51305;HTU21D;37392;50.964;6.952;2023-06-26T07:38:48;34.62;43.46
51305;HTU21D;37392;50.964;6.952;2023-06-26T07:41:13;35.27;42.26
51305;HTU21D;37392;50.964;6.952;2023-06-26T07:43:39;35.45;42.01
51305;HTU21D;37392;50.964;6.952;2023-06-26T07:46:04;35.75;41.59
51305;HTU21D;37392;50.964;6.952;2023-06-26T07:48:30;36.55;40.26
51305;HTU21D;37392;50.964;6.952;2023-06-26T07:50:55;37.45;38.91
51305;HTU21D;37392;50.964;6.952;2023-06-26T07:53:21;37.93;38.08
51305;HTU21D;37392;50.964;6.952;2023-06-26T07:55:47;38.44;37.30
51305;HTU21D;37392;50.964;6.952;2023-06-26T07:58:12;38.90;36.21
51305;HTU21D;37392;50.964;6.952;2023-06-26T08:00:38;38.92;36.13
51305;HTU21D;37392;50.964;6.952;2023-06-26T08:03:03;38.97;36.25
51305;HTU21D;37392;50.964;6.952;2023-06-26T08:05:29;39.35;35.76
51305;HTU21D;37392;50.964;6.952;2023-06-26T08:07:55;39.09;35.83
51305;HTU21D;37392;50.964;6.952;2023-06-26T08:10:20;38.81;36.10
51305;HTU21D;37392;50.964;6.952;2023-06-26T08:12:46;38.65;36.48
51305;HTU21D;37392;50.964;6.952;2023-06-26T08:15:13;38.17;37.00
51305;HTU21D;37392;50.964;6.952;2023-06-26T08:17:38;37.87;37.85
51305;HTU21D;37392;50.964;6.952;2023-06-26T08:20:05;37.42;38.03
51305;HTU21D;37392;50.964;6.952;2023-06-26T08:22:33;37.00;38.62
51305;HTU21D;37392;50.964;6.952;2023-06-26T08:24:58;37.13;38.68
51305;HTU21D;37392;50.964;6.952;2023-06-26T08:27:24;37.01;38.78
51305;HTU21D;37392;50.964;6.952;2023-06-26T08:29:50;36.40;39.75
51305;HTU21D;37392;50.964;6.952;2023-06-26T08:32:16;35.60;40.84
51305;HTU21D;37392;50.964;6.952;2023-06-26T08:34:41;34.83;42.25
51305;HTU21D;37392;50.964;6.952;2023-06-26T08:37:07;34.25;43.34
51305;HTU21D;37392;50.964;6.952;2023-06-26T08:39:34;34.22;44.03
51305;HTU21D;37392;50.964;6.952;2023-06-26T08:42:00;34.77;43.27
51305;HTU21D;37392;50.964;6.952;2023-06-26T08:44:26;35.63;41.61
51305;HTU21D;37392;50.964;6.952;2023-06-26T08:46:51;36.42;40.18
51305;HTU21D;37392;50.964;6.952;2023-06-26T08:52:22;37.31;38.47
51305;HTU21D;37392;50.964;6.952;2023-06-26T08:54:56;36.37;39.51
51305;HTU21D;37392;50.964;6.952;2023-06-26T08:57:25;36.23;40.31
51305;HTU21D;37392;50.964;6.952;2023-06-26T08:59:52;36.27;40.09
51305;HTU21D;37392;50.964;6.952;2023-06-26T09:02:18;35.69;40.75
51305;HTU21D;37392;50.964;6.952;2023-06-26T09:04:47;35.36;41.42
51305;HTU21D;37392;50.964;6.952;2023-06-26T09:07:14;35.15;41.83
51305;HTU21D;37392;50.964;6.952;2023-06-26T09:09:40;35.57;41.41
51305;HTU21D;37392;50.964;6.952;2023-06-26T09:12:06;35.99;40.51
51305;HTU21D;37392;50.964;6.952;2023-06-26T09:14:32;36.08;40.31
51305;HTU21D;37392;50.964;6.952;2023-06-26T09:16:57;36.54;39.96
51305;HTU21D;37392;50.964;6.952;2023-06-26T09:19:23;37.46;38.56
51305;HTU21D;37392;50.964;6.952;2023-06-26T09:21:50;38.21;37.22
51305;HTU21D;37392;50.964;6.952;2023-06-26T09:24:17;39.13;35.64
51305;HTU21D;37392;50.964;6.952;2023-06-26T09:26:42;39.49;35.02
51305;HTU21D;37392;50.964;6.952;2023-06-26T09:29:09;39.55;34.79
51305;HTU21D;37392;50.964;6.952;2023-06-26T09:31:38;39.69;34.60
51305;HTU21D;37392;50.964;6.952;2023-06-26T09:34:04;40.03;34.12
51305;HTU21D;37392;50.964;6.952;2023-06-26T09:36:30;39.45;34.49
51305;HTU21D;37392;50.964;6.952;2023-06-26T09:39:06;38.92;35.25
51305;HTU21D;37392;50.964;6.952;2023-06-26T09:41:36;38.78;34.84
51305;HTU21D;37392;50.964;6.952;2023-06-26T09:44:04;39.30;34.31
51305;HTU21D;37392;50.964;6.952;2023-06-26T09:46:30;40.00;33.41
51305;HTU21D;37392;50.964;6.952;2023-06-26T09:49:07;39.92;33.30
51305;HTU21D;37392;50.964;6.952;2023-06-26T09:51:35;39.55;33.59
51305;HTU21D;37392;50.964;6.952;2023-06-26T09:54:03;38.81;34.45
51305;HTU21D;37392;50.964;6.952;2023-06-26T09:56:30;38.93;34.81
51305;HTU21D;37392;50.964;6.952;2023-06-26T09:58:57;38.85;34.82
51305;HTU21D;37392;50.964;6.952;2023-06-26T10:01:27;39.36;33.88
51305;HTU21D;37392;50.964;6.952;2023-06-26T10:03:54;39.67;33.52
51305;HTU21D;37392;50.964;6.952;2023-06-26T10:06:33;39.06;33.83
51305;HTU21D;37392;50.964;6.952;2023-06-26T10:09:02;38.91;34.07
51305;HTU21D;37392;50.964;6.952;2023-06-26T10:11:41;38.55;34.67
51305;HTU21D;37392;50.964;6.952;2023-06-26T10:14:11;38.04;34.99
51305;HTU21D;37392;50.964;6.952;2023-06-26T10:16:37;38.29;35.25
51305;HTU21D;37392;50.964;6.952;2023-06-26T10:19:06;38.55;34.47
51305;HTU21D;37392;50.964;6.952;2023-06-26T10:21:34;38.05;34.47
51305;HTU21D;37392;50.964;6.952;2023-06-26T10:24:05;38.30;34.05
51305;HTU21D;37392;50.964;6.952;2023-06-26T10:26:36;38.71;33.25
51305;HTU21D;37392;50.964;6.952;2023-06-26T10:29:04;37.93;34.02
51305;HTU21D;37392;50.964;6.952;2023-06-26T10:31:32;36.82;35.63
51305;HTU21D;37392;50.964;6.952;2023-06-26T10:33:58;36.46;36.72
51305;HTU21D;37392;50.964;6.952;2023-06-26T10:36:29;37.28;35.50
51305;HTU21D;37392;50.964;6.952;2023-06-26T10:38:57;38.16;34.31
51305;HTU21D;37392;50.964;6.952;2023-06-26T10:41:25;38.06;33.05
51305;HTU21D;37392;50.964;6.952;2023-06-26T10:46:28;36.99;34.20
51305;HTU21D;37392;50.964;6.952;2023-06-26T10:48:59;37.66;33.65
51305;HTU21D;37392;50.964;6.952;2023-06-26T10:51:27;38.21;32.83
51305;HTU21D;37392;50.964;6.952;2023-06-26T10:53:57;38.47;32.60
51305;HTU21D;37392;50.964;6.952;2023-06-26T10:59:20;39.45;30.71
51305;HTU21D;37392;50.964;6.952;2023-06-26T11:02:04;38.99;30.10
51305;HTU21D;37392;50.964;6.952;2023-06-26T11:04:47;38.45;31.46
51305;HTU21D;37392;50.964;6.952;2023-06-26T11:12:41;39.19;30.98
51305;HTU21D;37392;50.964;6.952;2023-06-26T11:15:12;39.86;30.00
51305;HTU21D;37392;50.964;6.952;2023-06-26T11:17:39;40.24;29.40
51305;HTU21D;37392;50.964;6.952;2023-06-26T11:20:06;40.17;29.04
51305;HTU21D;37392;50.964;6.952;2023-06-26T11:22:40;40.59;28.58
51305;HTU21D;37392;50.964;6.952;2023-06-26T11:25:08;40.25;28.55
51305;HTU21D;37392;50.964;6.952;2023-06-26T11:27:41;38.73;30.34
51305;HTU21D;37392;50.964;6.952;2023-06-26T11:30:08;38.21;30.90
51305;HTU21D;37392;50.964;6.952;2023-06-26T11:32:39;37.84;31.60
51305;HTU21D;37392;50.964;6.952;2023-06-26T11:35:05;37.84;31.75
51305;HTU21D;37392;50.964;6.952;2023-06-26T11:37:32;37.64;32.25
51305;HTU21D;37392;50.964;6.952;2023-06-26T11:39:58;37.11;32.69
51305;HTU21D;37392;50.964;6.952;2023-06-26T11:42:23;36.38;33.98
51305;HTU21D;37392;50.964;6.952;2023-06-26T11:44:50;35.53;35.37
51305;HTU21D;37392;50.964;6.952;2023-06-26T11:47:18;34.85;35.34
51305;HTU21D;37392;50.964;6.952;2023-06-26T11:49:47;34.02;36.50
51305;HTU21D;37392;50.964;6.952;2023-06-26T11:52:14;33.36;37.32
51305;HTU21D;37392;50.964;6.952;2023-06-26T11:54:41;33.28;37.31
51305;HTU21D;37392;50.964;6.952;2023-06-26T11:57:08;33.28;37.67
51305;HTU21D;37392;50.964;6.952;2023-06-26T11:59:34;33.37;37.89
51305;HTU21D;37392;50.964;6.952;2023-06-26T12:02:05;33.36;36.54
51305;HTU21D;37392;50.964;6.952;2023-06-26T12:04:32;33.26;35.23
51305;HTU21D;37392;50.964;6.952;2023-06-26T12:07:00;33.13;35.92
51305;HTU21D;37392;50.964;6.952;2023-06-26T12:09:30;33.14;37.10
51305;HTU21D;37392;50.964;6.952;2023-06-26T12:11:59;33.25;37.26
51305;HTU21D;37392;50.964;6.952;2023-06-26T12:14:25;33.41;37.05
51305;HTU21D;37392;50.964;6.952;2023-06-26T12:16:53;33.36;36.71
51305;HTU21D;37392;50.964;6.952;2023-06-26T12:19:24;33.46;36.85
51305;HTU21D;37392;50.964;6.952;2023-06-26T12:21:53;33.20;36.68
51305;HTU21D;37392;50.964;6.952;2023-06-26T12:24:22;33.17;37.03
51305;HTU21D;37392;50.964;6.952;2023-06-26T12:26:53;33.19;37.17
51305;HTU21D;37392;50.964;6.952;2023-06-26T12:29:21;32.99;37.59
51305;HTU21D;37392;50.964;6.952;2023-06-26T12:31:52;32.63;38.36
51305;HTU21D;37392;50.964;6.952;2023-06-26T12:34:30;32.39;38.41
51305;HTU21D;37392;50.964;6.952;2023-06-26T12:37:06;32.25;37.89
51305;HTU21D;37392;50.964;6.952;2023-06-26T12:42:25;32.38;38.69
51305;HTU21D;37392;50.964;6.952;2023-06-26T12:44:53;31.76;39.27
51305;HTU21D;37392;50.964;6.952;2023-06-26T12:47:30;31.48;39.47
51305;HTU21D;37392;50.964;6.952;2023-06-26T12:49:57;31.40;39.31
51305;HTU21D;37392;50.964;6.952;2023-06-26T12:52:23;31.41;38.72
51305;HTU21D;37392;50.964;6.952;2023-06-26T12:54:53;31.58;38.45
51305;HTU21D;37392;50.964;6.952;2023-06-26T12:57:19;31.48;38.80
51305;HTU21D;37392;50.964;6.952;2023-06-26T12:59:45;31.59;38.60
51305;HTU21D;37392;50.964;6.952;2023-06-26T13:02:11;31.52;38.53
51305;HTU21D;37392;50.964;6.952;2023-06-26T13:04:37;31.76;38.22
51305;HTU21D;37392;50.964;6.952;2023-06-26T13:07:08;31.58;37.93
51305;HTU21D;37392;50.964;6.952;2023-06-26T13:09:34;31.30;38.88
51305;HTU21D;37392;50.964;6.952;2023-06-26T13:12:02;31.43;38.30
51305;HTU21D;37392;50.964;6.952;2023-06-26T13:14:29;31.45;38.04
51305;HTU21D;37392;50.964;6.952;2023-06-26T13:16:55;31.27;38.31
51305;HTU21D;37392;50.964;6.952;2023-06-26T13:19:21;31.14;38.57
51305;HTU21D;37392;50.964;6.952;2023-06-26T13:21:46;31.12;38.78
51305;HTU21D;37392;50.964;6.952;2023-06-26T13:24:12;31.23;38.74
51305;HTU21D;37392;50.964;6.952;2023-06-26T13:26:38;31.13;38.37
51305;HTU21D;37392;50.964;6.952;2023-06-26T13:29:04;30.93;38.56
51305;HTU21D;37392;50.964;6.952;2023-06-26T13:31:31;30.83;38.80
51305;HTU21D;37392;50.964;6.952;2023-06-26T13:34:01;30.76;39.19
51305;HTU21D;37392;50.964;6.952;2023-06-26T13:36:28;30.54;38.94
51305;HTU21D;37392;50.964;6.952;2023-06-26T13:38:54;30.41;38.92
51305;HTU21D;37392;50.964;6.952;2023-06-26T13:41:23;30.23;38.10
51305;HTU21D;37392;50.964;6.952;2023-06-26T13:43:49;30.03;38.91
51305;HTU21D;37392;50.964;6.952;2023-06-26T13:46:15;29.87;38.89
51305;HTU21D;37392;50.964;6.952;2023-06-26T13:48:41;29.53;38.94
51305;HTU21D;37392;50.964;6.952;2023-06-26T13:51:06;29.22;39.32
51305;HTU21D;37392;50.964;6.952;2023-06-26T13:53:32;29.06;39.09
51305;HTU21D;37392;50.964;6.952;2023-06-26T13:55:58;29.15;39.59
51305;HTU21D;37392;50.964;6.952;2023-06-26T13:58:23;29.28;39.59
51305;HTU21D;37392;50.964;6.952;2023-06-26T14:00:52;29.36;39.52
51305;HTU21D;37392;50.964;6.952;2023-06-26T14:03:18;29.42;39.32
51305;HTU21D;37392;50.964;6.952;2023-06-26T14:05:44;29.50;38.69
51305;HTU21D;37392;50.964;6.952;2023-06-26T14:08:10;29.48;38.31
51305;HTU21D;37392;50.964;6.952;2023-06-26T14:10:36;29.59;38.27
51305;HTU21D;37392;50.964;6.952;2023-06-26T14:13:03;29.62;38.11
51305;HTU21D;37392;50.964;6.952;2023-06-26T14:15:29;29.63;37.85
51305;HTU21D;37392;50.964;6.952;2023-06-26T14:17:57;29.54;37.69
51305;HTU21D;37392;50.964;6.952;2023-06-26T14:20:24;29.53;37.61
51305;HTU21D;37392;50.964;6.952;2023-06-26T14:22:50;29.49;37.51
51305;HTU21D;37392;50.964;6.952;2023-06-26T14:25:16;29.50;37.91
51305;HTU21D;37392;50.964;6.952;2023-06-26T14:27:42;29.45;37.65
51305;HTU21D;37392;50.964;6.952;2023-06-26T14:30:10;29.58;37.75
51305;HTU21D;37392;50.964;6.952;2023-06-26T14:32:40;29.48;38.01
51305;HTU21D;37392;50.964;6.952;2023-06-26T14:35:08;29.50;38.11
51305;HTU21D;37392;50.964;6.952;2023-06-26T14:37:36;29.50;38.47
51305;HTU21D;37392;50.964;6.952;2023-06-26T14:40:01;29.43;39.05
51305;HTU21D;37392;50.964;6.952;2023-06-26T14:42:27;29.33;39.69
51305;HTU21D;37392;50.964;6.952;2023-06-26T14:44:53;29.28;39.83
51305;HTU21D;37392;50.964;6.952;2023-06-26T14:47:19;29.44;39.84
51305;HTU21D;37392;50.964;6.952;2023-06-26T14:49:45;29.68;39.82
51305;HTU21D;37392;50.964;6.952;2023-06-26T14:52:10;29.76;39.45
51305;HTU21D;37392;50.964;6.952;2023-06-26T14:54:36;29.67;38.95
51305;HTU21D;37392;50.964;6.952;2023-06-26T14:57:03;29.51;39.04
51305;HTU21D;37392;50.964;6.952;2023-06-26T14:59:29;29.19;39.15
51305;HTU21D;37392;50.964;6.952;2023-06-26T15:01:54;29.29;39.36
51305;HTU21D;37392;50.964;6.952;2023-06-26T15:04:20;29.44;39.65
51305;HTU21D;37392;50.964;6.952;2023-06-26T15:06:45;29.60;38.91
51305;HTU21D;37392;50.964;6.952;2023-06-26T15:09:11;29.60;38.42
51305;HTU21D;37392;50.964;6.952;2023-06-26T15:11:36;29.39;38.62
51305;HTU21D;37392;50.964;6.952;2023-06-26T15:14:02;29.13;39.10
51305;HTU21D;37392;50.964;6.952;2023-06-26T15:16:28;28.93;39.30
51305;HTU21D;37392;50.964;6.952;2023-06-26T15:18:53;28.80;38.85
51305;HTU21D;37392;50.964;6.952;2023-06-26T15:21:21;28.88;38.62
51305;HTU21D;37392;50.964;6.952;2023-06-26T15:23:47;28.94;38.12
51305;HTU21D;37392;50.964;6.952;2023-06-26T15:26:13;28.97;37.79
51305;HTU21D;37392;50.964;6.952;2023-06-26T15:28:39;28.87;36.92
51305;HTU21D;37392;50.964;6.952;2023-06-26T15:31:05;28.72;37.66
51305;HTU21D;37392;50.964;6.952;2023-06-26T15:33:30;28.72;38.70
51305;HTU21D;37392;50.964;6.952;2023-06-26T15:35:56;28.67;37.40